Time;durP1;ratioP1;P1;durP2;ratioP2;P2;SDS_P1;SDS_P2;PMS_P1;PMS_P2;Temp;Humidity;BMP_temperature;BMP_pressure;BME280_temperature;BME280_humidity;BME280_pressure;Samples;Min_cycle;Max_cycle;Signal;HPM_P1;HPM_P2
2022/09/17 00:00:14;;;;;;;3.38;0.85;;;;;;;18.77;46.20;101125.56;4999228;28;20030;-63
2022/09/17 00:02:43;;;;;;;1.10;0.75;;;;;;;18.72;46.29;101119.81;4999409;28;20031;-63
2022/09/17 00:05:09;;;;;;;6.63;0.75;;;;;;;18.75;46.35;101126.75;4998997;28;20050;-64
2022/09/17 00:07:35;;;;;;;1.25;0.70;;;;;;;18.75;46.64;101135.75;4999413;28;20076;-63
2022/09/17 00:10:00;;;;;;;4.53;0.73;;;;;;;18.76;46.80;101132.00;4999029;28;20035;-63
2022/09/17 00:12:25;;;;;;;2.22;1.27;;;;;;;18.77;46.30;101125.56;4999132;28;20027;-63
2022/09/17 00:14:51;;;;;;;3.20;0.82;;;;;;;18.81;46.65;101121.50;4999955;28;20047;-63
2022/09/17 00:17:16;;;;;;;5.15;0.68;;;;;;;18.79;46.09;101120.78;4999358;28;20496;-63
2022/09/17 00:19:41;;;;;;;5.82;0.43;;;;;;;18.80;46.68;101125.22;4983161;28;20086;-63
2022/09/17 00:22:07;;;;;;;7.53;1.00;;;;;;;18.83;46.43;101133.00;4998598;28;20031;-64
2022/09/17 00:24:32;;;;;;;0.77;0.47;;;;;;;18.82;47.25;101128.59;4998722;28;20030;-63
2022/09/17 00:26:58;;;;;;;3.47;0.60;;;;;;;18.84;46.37;101132.00;4998688;28;20026;-63
2022/09/17 00:29:23;;;;;;;3.47;0.45;;;;;;;18.84;46.81;101113.00;4999018;28;20057;-64
2022/09/17 00:31:49;;;;;;;3.28;0.90;;;;;;;18.83;46.78;101127.56;4982713;28;20046;-63
2022/09/17 00:34:14;;;;;;;3.25;0.90;;;;;;;18.81;46.94;101118.78;4998817;28;20031;-63
2022/09/17 00:36:40;;;;;;;1.13;0.60;;;;;;;18.83;46.32;101127.56;4982392;28;20053;-63
2022/09/17 00:39:06;;;;;;;2.67;0.60;;;;;;;18.81;46.88;101124.19;4998484;28;20038;-65
2022/09/17 00:41:33;;;;;;;1.75;0.68;;;;;;;18.78;46.59;101121.84;4998748;28;20007;-64
2022/09/17 00:44:00;;;;;;;4.07;0.68;;;;;;;18.79;46.91;101128.94;4981845;28;20035;-63
2022/09/17 00:46:39;;;;;;;5.90;0.73;;;;;;;18.82;47.13;101133.16;4998946;28;20083;-63
2022/09/17 00:49:21;;;;;;;6.43;0.60;;;;;;;18.85;47.27;101138.25;4981685;28;20019;-64
2022/09/17 00:52:10;;;;;;;3.25;0.88;;;;;;;18.88;46.70;101132.47;4982044;28;20018;-63
2022/09/17 00:54:38;;;;;;;4.47;0.60;;;;;;;18.84;46.67;101134.72;4998046;28;20134;-64
2022/09/17 00:57:04;;;;;;;3.03;0.75;;;;;;;18.83;46.53;101143.00;4982044;28;20034;-63
2022/09/17 00:59:29;;;;;;;5.22;0.82;;;;;;;18.82;47.03;101130.44;4998158;28;20043;-63
2022/09/17 01:01:55;;;;;;;4.13;0.50;;;;;;;18.86;46.68;101140.81;4998015;28;20037;-63
2022/09/17 01:04:23;;;;;;;5.13;0.50;;;;;;;18.85;46.85;101144.53;4997866;28;20011;-63
2022/09/17 01:06:48;;;;;;;4.32;0.73;;;;;;;18.86;47.28;101146.22;4981317;28;20019;-63
2022/09/17 01:09:35;;;;;;;2.90;0.60;;;;;;;18.83;46.76;101141.16;4997852;28;20027;-63
2022/09/17 01:12:09;;;;;;;6.57;1.05;;;;;;;18.80;47.33;101146.94;4997840;28;20058;-63
2022/09/17 01:15:14;;;;;;;7.13;0.60;;;;;;;18.82;46.78;101150.31;4998585;28;20046;-64
2022/09/17 01:17:52;;;;;;;7.47;0.55;;;;;;;18.77;47.18;101158.13;4997955;28;20094;-63
2022/09/17 01:20:26;;;;;;;1.75;0.50;;;;;;;18.73;47.30;101156.81;4998269;28;20018;-63
2022/09/17 01:23:07;;;;;;;9.60;1.17;;;;;;;18.73;47.32;101162.22;4997696;28;20067;-63
2022/09/17 01:26:09;;;;;;;3.88;0.70;;;;;;;18.71;46.92;101158.81;4998071;28;20034;-62
2022/09/17 01:28:43;;;;;;;4.88;0.70;;;;;;;18.72;46.73;101160.53;4998073;28;20029;-64
2022/09/17 01:31:24;;;;;;;3.22;0.50;;;;;;;18.69;46.96;101154.59;4997844;28;20009;-64
2022/09/17 01:34:00;;;;;;;3.90;0.70;;;;;;;18.72;46.75;101160.53;4997938;28;20030;-63
2022/09/17 01:36:42;;;;;;;3.30;0.55;;;;;;;18.73;47.64;101155.94;4997389;28;20019;-63
2022/09/17 01:39:20;;;;;;;2.15;0.57;;;;;;;18.71;47.55;101158.81;4996913;28;20026;-63
2022/09/17 01:41:58;;;;;;;7.65;1.20;;;;;;;18.74;47.78;101163.91;4980466;28;20007;-63
2022/09/17 01:44:26;;;;;;;6.47;0.77;;;;;;;18.74;46.83;101163.06;4981364;28;20025;-63
2022/09/17 01:47:06;;;;;;;9.70;0.80;;;;;;;18.75;46.72;101160.19;4997121;28;20062;-63
2022/09/17 01:49:36;;;;;;;3.83;0.70;;;;;;;18.77;46.73;101166.28;4980844;28;20033;-63
2022/09/17 01:52:02;;;;;;;5.78;0.75;;;;;;;18.76;47.04;101170.00;4996962;28;20019;-64
2022/09/17 01:54:35;;;;;;;2.00;0.60;;;;;;;18.79;47.27;101171.53;4965343;28;20532;-63
2022/09/17 01:57:21;;;;;;;6.40;1.10;;;;;;;18.80;47.72;101171.34;4997026;28;20010;-63
2022/09/17 01:59:46;;;;;;;2.90;0.63;;;;;;;18.80;47.13;101165.94;4996720;28;20054;-63
2022/09/17 02:02:38;;;;;;;2.17;0.98;;;;;;;18.80;47.21;101168.63;4997320;28;20019;-63
2022/09/17 02:05:08;;;;;;;2.20;0.50;;;;;;;18.78;46.77;101170.69;4981164;28;20022;-63
2022/09/17 02:07:43;;;;;;;4.25;0.70;;;;;;;18.76;47.98;101167.28;4996867;28;20011;-63
2022/09/17 02:10:15;;;;;;;1.73;0.85;;;;;;;18.79;47.42;101177.78;4996837;28;20038;-63
2022/09/17 02:12:44;;;;;;;3.93;0.87;;;;;;;18.79;47.30;101176.97;4980566;28;20042;-64
2022/09/17 02:15:15;;;;;;;3.67;0.80;;;;;;;18.77;47.59;101173.56;4996518;28;20079;-63
2022/09/17 02:17:45;;;;;;;7.70;0.88;;;;;;;18.72;47.10;101171.38;4981020;28;20443;-64
2022/09/17 02:20:11;;;;;;;4.07;1.10;;;;;;;18.77;47.84;101179.84;4996853;28;20018;-63
2022/09/17 02:22:46;;;;;;;4.97;0.82;;;;;;;18.79;47.23;101183.22;4996655;28;20062;-63
2022/09/17 02:25:32;;;;;;;4.50;0.90;;;;;;;18.78;47.80;101186.97;4980051;28;20057;-63
2022/09/17 02:28:24;;;;;;;9.30;1.10;;;;;;;18.74;47.58;101180.19;4980626;28;20007;-63
2022/09/17 02:30:50;;;;;;;4.88;0.80;;;;;;;18.72;47.18;101182.25;4996649;28;20035;-63
2022/09/17 02:33:17;;;;;;;2.20;0.50;;;;;;;18.76;47.26;101183.56;4997128;28;20035;-63
2022/09/17 02:35:43;;;;;;;6.70;0.88;;;;;;;18.79;47.73;101194.06;4999492;28;20046;-63
2022/09/17 02:38:09;;;;;;;4.03;0.65;;;;;;;18.80;47.09;101187.63;4984200;28;20039;-63
2022/09/17 02:40:49;;;;;;;1.77;0.60;;;;;;;18.84;47.26;101188.16;4984100;28;20027;-63
2022/09/17 02:43:37;;;;;;;2.13;0.75;;;;;;;18.81;47.83;101192.06;4999992;28;20019;-63
2022/09/17 02:46:32;;;;;;;1.75;0.60;;;;;;;18.81;48.04;101181.22;4983993;28;20023;-64
2022/09/17 02:49:27;;;;;;;5.68;0.82;;;;;;;18.78;47.89;101176.13;5000225;28;20027;-64
2022/09/17 02:52:03;;;;;;;4.95;0.63;;;;;;;18.85;47.27;101182.53;4996751;28;20485;-64
2022/09/17 02:54:52;;;;;;;3.95;0.50;;;;;;;18.87;47.48;101190.53;4983854;28;20097;-62
2022/09/17 02:57:29;;;;;;;6.00;0.60;;;;;;;18.84;47.49;101188.16;4983632;28;20057;-63
2022/09/17 03:00:01;;;;;;;6.75;0.88;;;;;;;18.86;47.59;101199.69;4983407;28;20050;-63
2022/09/17 03:02:49;;;;;;;3.20;0.77;;;;;;;18.89;47.55;101192.03;5000731;28;20035;-63
2022/09/17 03:05:19;;;;;;;4.85;0.43;;;;;;;18.88;47.80;101193.03;4983822;28;20054;-63
2022/09/17 03:07:44;;;;;;;2.28;0.55;;;;;;;18.90;47.46;101190.19;4999885;28;20031;-63
2022/09/17 03:10:09;;;;;;;6.65;0.80;;;;;;;18.92;47.41;101183.53;5000036;28;20062;-63
2022/09/17 03:12:36;;;;;;;5.88;1.15;;;;;;;18.97;46.87;101197.44;4983545;28;20031;-63
2022/09/17 03:15:02;;;;;;;2.42;1.13;;;;;;;18.97;47.89;101192.00;4983518;28;20121;-63
2022/09/17 03:17:28;;;;;;;3.28;0.28;;;;;;;18.99;47.40;101195.38;4967614;28;20007;-63
2022/09/17 03:19:53;;;;;;;6.28;0.70;;;;;;;19.00;47.60;101191.66;4983394;28;20031;-63
2022/09/17 03:22:18;;;;;;;6.10;0.85;;;;;;;19.01;47.08;101193.34;4999603;28;20026;-63
2022/09/17 03:24:44;;;;;;;3.38;0.47;;;;;;;19.00;47.92;101186.22;4983403;28;20082;-63
2022/09/17 03:27:09;;;;;;;10.13;1.85;;;;;;;18.97;47.15;101185.72;4999542;28;20033;-63
2022/09/17 03:29:34;;;;;;;5.03;0.80;;;;;;;18.98;47.49;101193.69;5000092;28;20055;-63
2022/09/17 03:32:00;;;;;;;4.05;0.60;;;;;;;18.98;47.19;101188.25;4999617;28;20102;-64
2022/09/17 03:34:25;;;;;;;3.10;0.90;;;;;;;18.99;47.67;101183.69;4999819;28;20011;-63
2022/09/17 03:36:51;;;;;;;0.55;0.30;;;;;;;19.00;47.34;101180.81;4999174;28;20098;-64
2022/09/17 03:39:16;;;;;;;7.80;0.50;;;;;;;19.01;47.38;101192.50;4999156;28;20027;-63
2022/09/17 03:41:41;;;;;;;4.32;0.77;;;;;;;19.00;47.13;101194.38;4999089;28;20011;-64
2022/09/17 03:44:09;;;;;;;4.22;0.60;;;;;;;18.95;47.25;101185.06;5000306;28;20038;-63
2022/09/17 03:46:34;;;;;;;3.45;0.47;;;;;;;19.01;47.48;101198.75;4983147;28;20034;-63
2022/09/17 03:49:00;;;;;;;6.88;0.68;;;;;;;18.99;47.02;101199.97;4983123;28;20086;-63
2022/09/17 03:51:25;;;;;;;2.58;0.50;;;;;;;18.96;47.12;101206.59;4982871;28;20424;-63
2022/09/17 03:53:50;;;;;;;7.60;0.63;;;;;;;18.94;47.32;101214.06;4967121;28;20038;-63
2022/09/17 03:56:16;;;;;;;4.28;0.93;;;;;;;18.94;47.79;101203.22;4999094;28;20062;-63
2022/09/17 03:58:42;;;;;;;4.95;0.43;;;;;;;18.91;47.78;101203.56;4999572;28;20026;-64
2022/09/17 04:01:07;;;;;;;3.85;0.50;;;;;;;18.94;47.08;101208.66;4999149;28;20070;-63
2022/09/17 04:03:33;;;;;;;2.72;0.38;;;;;;;18.90;47.20;101210.00;4999186;28;20015;-64
2022/09/17 04:05:58;;;;;;;4.72;0.50;;;;;;;18.94;47.31;101224.94;4998828;28;20033;-63
2022/09/17 04:08:24;;;;;;;6.03;0.70;;;;;;;18.90;47.67;101211.91;4999054;28;20027;-63
2022/09/17 04:10:50;;;;;;;10.05;1.52;;;;;;;18.89;47.94;101215.63;4998765;28;20042;-63
2022/09/17 04:13:17;;;;;;;5.50;1.52;;;;;;;18.87;47.61;101207.63;4966623;28;20099;-63
2022/09/17 04:15:43;;;;;;;4.07;0.77;;;;;;;18.85;47.88;101209.69;4982605;28;20130;-64
2022/09/17 04:18:09;;;;;;;3.65;0.70;;;;;;;18.84;47.45;101218.00;4998878;28;20015;-64
2022/09/17 04:20:34;;;;;;;2.88;0.25;;;;;;;18.81;47.45;101205.63;4982012;28;20037;-63
2022/09/17 04:23:00;;;;;;;3.38;0.50;;;;;;;18.83;47.59;101208.16;4982784;28;20026;-63
2022/09/17 04:25:25;;;;;;;4.10;0.75;;;;;;;18.79;47.57;101204.94;4999230;28;20037;-63
2022/09/17 04:27:51;;;;;;;5.50;0.80;;;;;;;18.80;47.74;101205.78;4982924;28;20047;-63
2022/09/17 04:30:16;;;;;;;1.52;0.57;;;;;;;18.82;47.24;101210.03;4998650;28;20035;-63
2022/09/17 04:32:43;;;;;;;3.20;0.80;;;;;;;18.80;47.46;101217.50;4982568;28;20011;-64
2022/09/17 04:35:08;;;;;;;2.40;0.70;;;;;;;18.79;47.37;101210.38;4998191;28;20027;-63
2022/09/17 04:37:34;;;;;;;1.45;0.65;;;;;;;18.82;47.27;101215.44;4966244;28;20027;-64
2022/09/17 04:39:59;;;;;;;3.50;0.82;;;;;;;18.81;47.43;101213.78;4981937;28;20035;-63
2022/09/17 04:42:25;;;;;;;1.85;0.60;;;;;;;18.79;48.18;101213.06;4982234;28;20038;-63
2022/09/17 04:44:50;;;;;;;6.97;0.90;;;;;;;18.82;47.74;101226.31;4966060;28;20022;-63
2022/09/17 04:47:15;;;;;;;4.68;0.57;;;;;;;18.79;47.75;101218.50;4981789;28;20011;-63
2022/09/17 04:49:41;;;;;;;0.60;0.30;;;;;;;18.81;47.96;101219.22;4998569;28;20015;-64
2022/09/17 04:52:06;;;;;;;8.38;0.60;;;;;;;18.81;47.78;101230.06;4998495;28;20038;-64
2022/09/17 04:54:31;;;;;;;6.32;0.63;;;;;;;18.81;48.03;101224.63;4998554;28;20053;-63
2022/09/17 04:56:58;;;;;;;5.93;1.00;;;;;;;18.82;47.62;101236.31;4981844;28;20039;-63
2022/09/17 04:59:23;;;;;;;1.75;0.60;;;;;;;18.81;47.96;101240.91;4998590;28;20023;-63
2022/09/17 05:01:49;;;;;;;3.58;0.95;;;;;;;18.79;48.02;101233.97;4981804;28;20110;-64
2022/09/17 05:04:14;;;;;;;9.23;0.60;;;;;;;18.78;48.33;101230.41;4998227;28;20047;-64
2022/09/17 05:06:40;;;;;;;1.50;0.95;;;;;;;18.79;48.09;101233.97;4997889;28;20046;-63
2022/09/17 05:09:05;;;;;;;5.38;0.47;;;;;;;18.77;47.23;101231.41;4998013;28;20011;-63
2022/09/17 05:11:31;;;;;;;3.65;0.75;;;;;;;18.72;47.94;101236.53;4965614;28;20015;-64
2022/09/17 05:13:56;;;;;;;4.30;0.70;;;;;;;18.72;48.17;101236.53;4981812;28;20034;-64
2022/09/17 05:16:22;;;;;;;5.18;1.00;;;;;;;18.71;47.85;101240.25;4981932;28;20015;-63
2022/09/17 05:18:48;;;;;;;3.60;0.55;;;;;;;18.68;47.72;101246.00;4997869;28;20046;-63
2022/09/17 05:21:13;;;;;;;3.00;0.65;;;;;;;18.71;47.28;101247.53;4981758;28;20022;-63
2022/09/17 05:23:39;;;;;;;2.97;1.05;;;;;;;18.70;47.47;101245.84;4981518;28;20011;-64
2022/09/17 05:26:04;;;;;;;5.03;0.52;;;;;;;18.72;47.44;101250.09;4982062;28;20035;-63
2022/09/17 05:28:30;;;;;;;4.95;0.70;;;;;;;18.71;47.62;101255.66;4997430;28;20049;-63
2022/09/17 05:30:58;;;;;;;4.28;0.88;;;;;;;18.70;47.36;101254.84;4997966;28;20039;-63
2022/09/17 05:33:24;;;;;;;6.82;1.48;;;;;;;18.67;48.34;101247.06;4981498;28;20041;-64
2022/09/17 05:35:49;;;;;;;3.20;0.73;;;;;;;18.68;47.21;101245.19;4982000;28;20464;-64
2022/09/17 05:38:17;;;;;;;3.45;0.80;;;;;;;18.74;47.32;101250.75;4998041;28;20034;-64
2022/09/17 05:40:42;;;;;;;2.55;0.60;;;;;;;18.76;48.01;101253.31;4982045;28;20007;-63
2022/09/17 05:43:08;;;;;;;3.33;0.40;;;;;;;18.74;47.58;101250.75;4997935;28;20060;-65
2022/09/17 05:45:35;;;;;;;4.28;0.50;;;;;;;18.78;47.68;101246.69;4981691;28;20038;-63
2022/09/17 05:48:01;;;;;;;2.05;0.82;;;;;;;18.79;47.63;101259.22;4998025;28;20054;-63
2022/09/17 05:50:27;;;;;;;2.85;0.70;;;;;;;18.78;47.66;101262.97;4997979;28;20027;-64
2022/09/17 05:52:53;;;;;;;7.68;1.58;;;;;;;18.77;47.54;101265.84;4981765;28;20015;-63
2022/09/17 05:55:19;;;;;;;5.53;0.93;;;;;;;18.76;47.98;101275.03;4981957;28;20083;-64
2022/09/17 05:57:44;;;;;;;2.50;0.68;;;;;;;18.75;47.53;101279.59;4982122;28;20038;-64
2022/09/17 06:00:11;;;;;;;4.28;0.52;;;;;;;18.76;47.94;101285.88;4999321;28;20055;-64
2022/09/17 06:02:36;;;;;;;3.85;1.27;;;;;;;18.75;48.28;101279.59;4998711;28;20022;-64
2022/09/17 06:05:03;;;;;;;5.00;0.80;;;;;;;18.78;48.49;101278.41;4998994;28;20070;-65
2022/09/17 06:07:29;;;;;;;2.13;0.70;;;;;;;18.82;48.02;101274.31;4998854;28;20019;-64
2022/09/17 06:09:54;;;;;;;5.18;0.50;;;;;;;18.85;47.79;101279.41;4985025;28;20042;-64
2022/09/17 06:12:21;;;;;;;3.35;0.75;;;;;;;18.89;48.06;101281.63;5001797;28;20034;-64
2022/09/17 06:14:47;;;;;;;6.40;0.57;;;;;;;18.97;47.99;101284.31;5002002;28;20015;-64
2022/09/17 06:17:12;;;;;;;4.97;0.70;;;;;;;19.07;47.92;101295.84;5001851;28;20038;-63
2022/09/17 06:19:40;;;;;;;4.40;0.70;;;;;;;19.17;48.00;101291.09;5002274;28;20030;-63
2022/09/17 06:22:06;;;;;;;4.55;0.32;;;;;;;19.26;47.50;101272.03;5001553;28;20030;-64
2022/09/17 06:24:31;;;;;;;1.48;0.22;;;;;;;19.42;48.34;101288.31;5001609;28;20046;-64
2022/09/17 06:26:57;;;;;;;5.72;0.70;;;;;;;19.53;47.41;101290.66;4985069;28;20007;-63
2022/09/17 06:29:23;;;;;;;4.55;0.85;;;;;;;19.72;47.07;101284.78;5001720;28;20030;-65
2022/09/17 06:31:48;;;;;;;3.25;0.88;;;;;;;19.85;47.15;101285.03;4985655;28;20116;-64
2022/09/17 06:34:14;;;;;;;6.22;0.52;;;;;;;19.79;46.81;101274.91;4985420;28;20050;-64
2022/09/17 06:36:40;;;;;;;6.30;0.73;;;;;;;19.95;47.70;101288.41;4985492;28;20011;-64
2022/09/17 06:39:06;;;;;;;6.75;1.00;;;;;;;20.02;47.75;101289.38;5002481;28;20062;-65
2022/09/17 06:41:32;;;;;;;2.72;0.50;;;;;;;20.01;47.34;101284.97;4985494;28;20027;-64
2022/09/17 06:43:57;;;;;;;7.40;0.90;;;;;;;20.05;47.50;101290.88;4985714;28;20094;-65
2022/09/17 06:46:23;;;;;;;1.58;0.80;;;;;;;20.16;46.88;101285.03;5001857;28;20027;-64
2022/09/17 06:48:48;;;;;;;4.93;1.00;;;;;;;20.22;47.20;101287.88;4985717;28;20126;-64
2022/09/17 06:51:13;;;;;;;4.80;0.60;;;;;;;20.26;47.21;101283.81;5001978;28;20058;-64
2022/09/17 06:53:39;;;;;;;5.47;0.80;;;;;;;20.29;47.37;101291.63;5001853;28;20014;-64
2022/09/17 06:56:07;;;;;;;1.70;0.73;;;;;;;20.33;47.39;101289.38;5001714;28;20019;-63
2022/09/17 06:58:36;;;;;;;5.13;0.68;;;;;;;20.53;46.87;101306.06;4969747;28;20051;-63
2022/09/17 07:01:02;;;;;;;2.03;0.43;;;;;;;20.83;46.38;101302.41;5001493;28;20047;-64
2022/09/17 07:03:28;;;;;;;8.95;0.90;;;;;;;20.83;46.38;101302.41;5001544;28;20030;-64
2022/09/17 07:05:54;;;;;;;5.32;1.15;;;;;;;21.01;46.00;101293.91;5001310;28;20014;-63
2022/09/17 07:08:19;;;;;;;1.55;0.63;;;;;;;21.12;46.22;101302.50;5001288;28;20022;-65
2022/09/17 07:10:45;;;;;;;3.00;0.52;;;;;;;21.09;46.72;101296.56;5001615;28;20042;-65
2022/09/17 07:13:10;;;;;;;2.67;0.80;;;;;;;21.08;46.65;101305.78;4985405;28;20074;-63
2022/09/17 07:15:35;;;;;;;10.25;0.70;;;;;;;21.03;46.53;101309.03;5001735;28;20027;-64
2022/09/17 07:18:09;;;;;;;5.22;0.70;;;;;;;21.01;46.60;101313.81;4985306;28;20046;-63
2022/09/17 07:20:34;;;;;;;6.10;1.40;;;;;;;20.99;46.16;101310.44;5000599;28;20022;-63
2022/09/17 07:23:00;;;;;;;3.22;0.68;;;;;;;20.97;46.65;101308.91;5001083;28;20019;-64
2022/09/17 07:25:25;;;;;;;2.38;0.47;;;;;;;20.95;46.60;101305.53;4984416;28;20018;-65
2022/09/17 07:27:51;;;;;;;3.78;0.73;;;;;;;21.08;46.25;101309.34;5000745;28;20050;-63
2022/09/17 07:30:17;;;;;;;10.27;1.00;;;;;;;21.48;45.95;101300.72;5000831;28;20011;-64
2022/09/17 07:32:43;;;;;;;1.85;0.95;;;;;;;21.81;45.10;101292.13;5000721;28;20017;-64
2022/09/17 07:35:08;;;;;;;6.47;1.00;;;;;;;22.04;45.09;101287.41;4984386;28;20038;-64
2022/09/17 07:37:33;;;;;;;1.67;0.60;;;;;;;22.42;44.59;101297.06;5000912;28;20031;-64
2022/09/17 07:39:59;;;;;;;1.92;0.63;;;;;;;22.76;43.90;101298.25;4984636;28;20041;-63
2022/09/17 07:42:26;;;;;;;3.00;1.02;;;;;;;23.01;43.95;101291.28;4999553;28;20047;-64
2022/09/17 07:44:51;;;;;;;5.10;0.60;;;;;;;23.34;43.27;101295.09;4998781;28;20018;-64
2022/09/17 07:47:17;;;;;;;4.50;0.93;;;;;;;23.65;43.87;101287.31;4999098;28;20042;-64
2022/09/17 07:49:42;;;;;;;8.68;1.10;;;;;;;23.94;43.12;101288.06;4982584;28;20539;-63
2022/09/17 07:52:07;;;;;;;4.40;0.77;;;;;;;23.97;43.03;101284.94;4998766;28;20027;-64
2022/09/17 07:54:33;;;;;;;5.32;0.93;;;;;;;24.23;43.02;101291.34;4999686;28;20030;-63
2022/09/17 07:56:59;;;;;;;3.65;0.95;;;;;;;24.39;42.37;101281.91;4982408;28;20053;-64
2022/09/17 07:59:25;;;;;;;5.75;0.65;;;;;;;24.37;42.72;101284.03;4998401;28;20034;-64
2022/09/17 08:01:50;;;;;;;3.00;0.80;;;;;;;24.30;42.64;101294.09;4982954;28;20015;-65
2022/09/17 08:04:16;;;;;;;5.28;0.85;;;;;;;24.26;42.63;101298.31;4999091;28;20018;-64
2022/09/17 08:06:41;;;;;;;2.33;0.60;;;;;;;24.42;42.63;101295.19;4998522;28;20050;-66
2022/09/17 08:09:08;;;;;;;5.65;0.88;;;;;;;24.78;41.87;101298.38;4982844;28;20026;-64
2022/09/17 08:11:34;;;;;;;1.75;0.65;;;;;;;25.01;41.60;101302.63;4998688;28;20027;-64
2022/09/17 08:13:59;;;;;;;4.03;0.90;;;;;;;25.36;41.10;101301.31;4998383;28;20034;-64
2022/09/17 08:16:25;;;;;;;1.42;0.52;;;;;;;25.68;40.88;101294.94;4998392;28;20035;-64
2022/09/17 08:18:55;;;;;;;9.68;2.50;;;;;;;25.73;41.02;101297.00;4982532;28;20026;-64
2022/09/17 08:21:21;;;;;;;3.38;0.80;;;;;;;25.85;40.80;101301.59;4998479;28;20053;-64
2022/09/17 08:23:47;;;;;;;3.88;0.40;;;;;;;26.02;40.32;101300.03;4981721;28;20018;-64
2022/09/17 08:26:15;;;;;;;4.68;0.88;;;;;;;25.67;41.03;101301.47;4966310;28;20029;-65
2022/09/17 08:28:46;;;;;;;4.43;0.50;;;;;;;25.30;41.89;101300.25;4998587;28;20019;-63
2022/09/17 08:31:12;;;;;;;4.07;0.52;;;;;;;25.09;41.53;101306.00;4997772;28;20022;-64
2022/09/17 08:33:39;;;;;;;2.70;0.75;;;;;;;24.87;41.51;101302.63;4998395;28;20043;-64
2022/09/17 08:36:06;;;;;;;1.75;0.63;;;;;;;24.65;41.41;101314.81;4981844;28;20026;-63
2022/09/17 08:38:33;;;;;;;3.10;0.40;;;;;;;24.48;41.25;101313.53;4998789;28;20027;-63
2022/09/17 08:41:01;;;;;;;4.20;0.40;;;;;;;24.32;42.02;101316.63;4982121;28;20030;-64
2022/09/17 08:43:27;;;;;;;3.92;0.80;;;;;;;24.17;41.86;101324.19;4998312;28;20031;-64
2022/09/17 08:45:54;;;;;;;3.40;0.70;;;;;;;23.92;41.74;101317.53;4966243;28;20011;-64
2022/09/17 08:48:20;;;;;;;5.15;0.93;;;;;;;23.73;41.48;101314.50;4998587;28;20024;-64
2022/09/17 08:50:47;;;;;;;2.42;0.52;;;;;;;23.57;42.30;101319.47;4998255;28;20061;-64
2022/09/17 08:53:34;;;;;;;1.20;0.40;;;;;;;23.43;42.08;101317.69;4998188;28;20030;-65
2022/09/17 08:56:01;;;;;;;5.57;0.73;;;;;;;23.27;41.46;101323.44;4998664;28;20051;-65
2022/09/17 08:58:29;;;;;;;4.97;0.82;;;;;;;23.15;42.21;101321.28;4998570;28;20051;-65
2022/09/17 09:01:10;;;;;;;3.22;0.60;;;;;;;23.00;42.16;101319.69;4997947;28;20199;-64
2022/09/17 09:03:59;;;;;;;8.85;0.85;;;;;;;22.95;41.88;101330.34;4998872;28;20058;-65
2022/09/17 09:06:27;;;;;;;2.90;0.40;;;;;;;22.91;41.64;101326.34;4998161;28;20023;-64
2022/09/17 09:08:59;;;;;;;4.88;0.55;;;;;;;22.90;41.62;101328.22;4998209;28;20030;-64
2022/09/17 09:11:26;;;;;;;5.82;0.50;;;;;;;22.89;41.56;101321.03;4981458;28;20027;-65
2022/09/17 09:14:23;;;;;;;1.05;0.32;;;;;;;22.96;41.80;101329.31;4981625;28;20030;-64
2022/09/17 09:16:51;;;;;;;5.28;0.40;;;;;;;23.00;41.86;101327.88;4998781;28;20071;-64
2022/09/17 09:19:31;;;;;;;1.55;0.22;;;;;;;23.11;41.73;101330.06;4982522;28;20034;-63
2022/09/17 09:22:02;;;;;;;1.83;0.25;;;;;;;23.22;41.47;101332.25;4998357;28;20014;-64
2022/09/17 09:24:40;;;;;;;4.65;0.75;;;;;;;23.33;41.13;101336.31;4998370;28;20027;-64
2022/09/17 09:27:13;;;;;;;3.30;0.80;;;;;;;23.37;41.36;101341.19;4998457;28;20054;-63
2022/09/17 09:29:55;;;;;;;1.85;0.28;;;;;;;23.41;40.94;101342.53;4998893;28;20026;-64
2022/09/17 09:32:49;;;;;;;3.97;0.40;;;;;;;23.66;40.91;101340.16;4998183;28;20042;-64
2022/09/17 09:35:19;;;;;;;3.58;0.47;;;;;;;24.11;40.95;101341.44;4998692;28;20037;-64
2022/09/17 09:38:21;;;;;;;3.55;0.60;;;;;;;24.71;40.45;101335.88;4997321;28;20023;-65
2022/09/17 09:40:50;;;;;;;3.30;0.60;;;;;;;25.21;39.33;101326.22;4997882;28;20022;-64
2022/09/17 09:43:21;;;;;;;5.97;0.60;;;;;;;25.39;39.48;101333.81;4981996;28;20030;-64
2022/09/17 09:46:04;;;;;;;3.70;0.35;;;;;;;26.55;38.16;101324.50;5003911;28;20026;-64
2022/09/17 09:48:51;;;;;;;1.38;0.30;;;;;;;27.20;37.63;101320.41;4987439;28;20090;-64
2022/09/17 09:51:23;;;;;;;5.97;0.63;;;;;;;27.55;37.45;101317.97;5004101;28;20078;-64
2022/09/17 09:54:17;;;;;;;2.42;0.60;;;;;;;27.57;37.07;101313.06;5004591;28;20015;-65
2022/09/17 09:56:54;;;;;;;1.45;0.30;;;;;;;28.43;36.37;101312.81;5004708;28;20023;-66
2022/09/17 09:59:19;;;;;;;1.52;0.35;;;;;;;29.09;36.46;101316.22;5004186;28;20031;-64
2022/09/17 10:01:45;;;;;;;1.92;0.40;;;;;;;29.68;35.88;101311.53;5005195;28;20034;-67
2022/09/17 10:04:20;;;;;;;2.58;0.38;;;;;;;30.28;34.64;101312.84;5004597;28;20034;-67
2022/09/17 10:06:47;;;;;;;2.88;0.47;;;;;;;30.76;34.28;101308.75;5003528;28;20031;-67
2022/09/17 10:09:16;;;;;;;1.92;0.43;;;;;;;31.46;34.00;101309.06;5004621;28;20026;-67
2022/09/17 10:11:43;;;;;;;2.22;0.70;;;;;;;32.20;32.97;101302.03;5004032;28;20011;-67
2022/09/17 10:14:23;;;;;;;1.42;0.40;;;;;;;32.05;33.26;101290.78;5003896;28;20018;-68
2022/09/17 10:16:48;;;;;;;2.25;0.30;;;;;;;31.46;33.76;101290.53;5004189;28;20023;-66
2022/09/17 10:19:24;;;;;;;2.28;0.57;;;;;;;31.68;33.31;101290.56;5004394;28;20018;-67
2022/09/17 10:21:50;;;;;;;0.98;0.30;;;;;;;31.34;33.55;101284.25;4988602;28;20035;-68
2022/09/17 10:24:23;;;;;;;1.85;0.32;;;;;;;30.66;33.69;101289.19;4988129;28;20028;-68
2022/09/17 10:26:48;;;;;;;2.65;0.30;;;;;;;29.99;34.33;101277.97;5004552;28;20019;-67
2022/09/17 10:29:17;;;;;;;0.43;0.32;;;;;;;30.25;33.14;101285.69;4988347;28;20022;-67
2022/09/17 10:31:53;;;;;;;1.30;0.50;;;;;;;30.75;32.56;101277.47;5004665;28;20022;-66
2022/09/17 10:34:19;;;;;;;3.00;0.80;;;;;;;31.20;32.03;101291.25;5004634;28;20007;-67
2022/09/17 10:36:45;;;;;;;1.45;0.60;;;;;;;31.21;32.29;101284.63;5004375;28;20074;-68
2022/09/17 10:39:32;;;;;;;2.42;0.60;;;;;;;30.75;32.37;101288.56;4987815;28;20037;-64
2022/09/17 10:42:02;;;;;;;1.58;0.50;;;;;;;31.52;31.17;101280.41;5004021;28;20026;-66
2022/09/17 10:44:30;;;;;;;8.18;0.95;;;;;;;32.11;30.46;101273.94;5004322;28;20042;-66
2022/09/17 10:47:05;;;;;;;1.70;0.68;;;;;;;32.19;30.86;101276.25;5004420;28;20034;-66
2022/09/17 10:49:43;;;;;;;1.52;0.40;;;;;;;32.52;29.94;101269.66;5003303;28;20054;-66
2022/09/17 10:52:21;;;;;;;4.57;0.63;;;;;;;32.40;30.27;101265.34;5004137;28;20038;-68
2022/09/17 10:55:17;;;;;;;4.13;0.57;;;;;;;32.61;30.60;101267.25;5003230;28;20070;-66
2022/09/17 10:57:42;;;;;;;4.90;0.75;;;;;;;33.33;29.40;101259.22;5001518;28;20091;-67
2022/09/17 11:00:17;;;;;;;0.90;0.40;;;;;;;33.42;29.35;101257.56;5001253;28;20504;-66
2022/09/17 11:02:55;;;;;;;4.68;0.32;;;;;;;33.67;28.62;101263.28;4984929;28;20038;-67
2022/09/17 11:05:52;;;;;;;1.67;0.40;;;;;;;33.97;29.68;101266.19;5001578;28;20047;-66
2022/09/17 11:08:39;;;;;;;2.70;0.30;;;;;;;32.79;30.62;101264.91;4985141;28;20018;-67
2022/09/17 11:11:31;;;;;;;1.75;0.73;;;;;;;31.51;31.11;101273.16;5001813;28;20075;-65
2022/09/17 11:14:16;;;;;;;0.33;0.20;;;;;;;30.49;31.16;101278.13;4998659;28;20039;-66
2022/09/17 11:17:20;;;;;;;0.75;0.40;;;;;;;29.57;31.86;101276.50;5001291;28;20018;-66
2022/09/17 11:19:57;;;;;;;0.77;0.43;;;;;;;28.67;32.29;101287.84;5001250;28;20023;-65
2022/09/17 11:22:29;;;;;;;1.52;0.40;;;;;;;28.03;33.79;101285.00;5001184;28;20019;-66
2022/09/17 11:25:26;;;;;;;3.83;0.43;;;;;;;27.63;33.74;101281.88;5001407;28;20047;-65
2022/09/17 11:28:19;;;;;;;0.73;0.22;;;;;;;27.26;33.50;101282.88;4995387;28;20031;-65
2022/09/17 11:31:39;;;;;;;3.92;0.45;;;;;;;26.81;33.84;101280.34;5001107;28;20030;-64
2022/09/17 11:34:12;;;;;;;1.10;0.17;;;;;;;26.56;34.68;101287.72;4979768;28;20043;-64
2022/09/17 11:36:57;;;;;;;;;;;;;;;26.42;34.38;101280.63;5000971;28;19999;-63
2022/09/17 11:39:44;;;;;;;2.08;0.32;;;;;;;26.13;34.55;101286.69;4999913;28;19987;-64